Ana Sayfa
METAR-TAF:

METAR-TAF

Havaalanları :

Debrecen, Macaristan

Enlem: 47-29N, Boylam: 021-36E, yükseklik: 108 m

Güncel hava durumu gözlemi

Rapor saat 11:15 UTC de 29 dakika önce yapıldı.
Rüzgar güneybatıdan 5 kt, güney ve kuzey/kuzeybatı arasında değişken
Sıcaklık 32°C
Nem 46%
Basınç 1024 hPa
Görüş mesafesi 10 km veya daha fazla
1500 m altında bulut yok ve kümülonimbus yok

METAR: LHDC 261115Z AUTO 23005KT 180V340 CAVOK 32/19 Q1024 NOSIG

Saat: 13:44 (11:44 UTC)

Tahmin

Rapor saat 11:15 UTC de 29 dakika önce yapıldı.
Ayın 26'si saat 12 UTC'den ayın 26'si saat 21 UTC'ye kadar geçerli Tahmin
Rüzgar değişken yönden 2 kt
Görüş mesafesi 10 km veya daha fazla
1500 m altında bulut yok ve kümülonimbus yok
Geçici
ayın 26'si saat 12 UTC'den ayın 26'si saat 17 UTC'ye kadar
Rüzgar güney/güneybatıdan 6 kt

TAF: LHDC 261115Z 2612/2621 VRB02KT CAVOK TEMPO 2612/2617 20006KT

4.000'den fazla havaalanı için hava durumu gözlemleri ve tahminleri (METAR ve TAF raporları).

Kullanılabilir istasyonlar harita üzerinde sarı ve kırmızı noktalarla gösterilir.

İstasyonun adını görmek için fareyi noktanın üzerinde gezdirin.

Sonrasında hava gözlem ve tahminlerini görmek için tıklayın.

Haritayı değiştirmek için: yaklaştırmak için siyah artı işaretli yeşil düğmeye ve uzaklaştırmak için de eksi işaretli düğmeye hızla tıklayın; bitişik haritalar için yeşil okları kullanın.


METAR-TAF: